createdAt,value
2023-03-23T00:01:50.359Z,545.00
2023-03-23T00:05:50.483Z,543.00
2023-03-23T00:09:50.635Z,539.00
2023-03-23T00:13:50.681Z,545.00
2023-03-23T00:17:50.770Z,546.00
2023-03-23T00:21:50.911Z,565.00
2023-03-23T00:25:51.052Z,553.00
2023-03-23T00:29:51.170Z,544.00
2023-03-23T00:33:51.191Z,560.00
2023-03-23T00:37:51.242Z,552.00
2023-03-23T00:41:51.334Z,555.00
2023-03-23T00:45:51.528Z,563.00
2023-03-23T00:49:51.685Z,562.00
2023-03-23T00:53:51.804Z,568.00
2023-03-23T00:57:51.967Z,579.00
2023-03-23T01:01:52.020Z,559.00
2023-03-23T01:05:52.040Z,559.00
2023-03-23T01:09:52.174Z,551.00
2023-03-23T01:13:52.213Z,538.00
2023-03-23T01:17:52.340Z,546.00
2023-03-23T01:21:52.308Z,568.00
2023-03-23T01:25:52.341Z,567.00
2023-03-23T01:29:52.325Z,565.00
2023-03-23T01:33:52.340Z,571.00
2023-03-23T01:37:52.415Z,567.00
2023-03-23T01:41:52.473Z,571.00
2023-03-23T01:45:52.464Z,584.00
2023-03-23T01:49:52.467Z,587.00
2023-03-23T01:53:52.498Z,598.00
2023-03-23T01:57:52.528Z,579.00
2023-03-23T02:01:52.486Z,564.00
2023-03-23T02:05:52.466Z,595.00
2023-03-23T02:09:52.551Z,580.00
2023-03-23T02:13:52.554Z,564.00
2023-03-23T02:17:52.542Z,569.00
2023-03-23T02:21:52.495Z,580.00
2023-03-23T02:25:52.521Z,575.00
2023-03-23T02:29:52.488Z,562.00
2023-03-23T02:33:52.558Z,567.00
2023-03-23T02:37:52.616Z,561.00
2023-03-23T02:41:52.704Z,564.00
2023-03-23T02:45:52.693Z,553.00
2023-03-23T02:49:52.757Z,573.00
2023-03-23T02:53:52.766Z,541.00
2023-03-23T02:57:52.748Z,555.00
2023-03-23T03:01:52.816Z,549.00
2023-03-23T03:05:52.846Z,549.00
2023-03-23T03:09:52.867Z,535.00
2023-03-23T03:13:52.918Z,572.00
2023-03-23T03:17:52.943Z,559.00
2023-03-23T03:21:52.949Z,555.00
2023-03-23T03:25:52.930Z,545.00
2023-03-23T03:29:52.927Z,533.00
2023-03-23T03:33:52.919Z,528.00
2023-03-23T03:37:52.874Z,526.00
2023-03-23T03:41:52.877Z,542.00
2023-03-23T03:45:52.841Z,536.00
2023-03-23T03:49:52.831Z,526.00
2023-03-23T03:53:52.806Z,532.00
2023-03-23T03:57:52.809Z,541.00
2023-03-23T04:01:52.777Z,546.00
2023-03-23T04:05:52.784Z,539.00
2023-03-23T04:09:53.715Z,546.00
2023-03-23T04:13:52.696Z,585.00
2023-03-23T04:17:52.644Z,583.00
2023-03-23T04:21:52.621Z,594.00
2023-03-23T04:25:52.606Z,593.00
2023-03-23T04:29:52.587Z,597.00
2023-03-23T04:34:00.516Z,603.00
2023-03-23T04:37:53.469Z,611.00
2023-03-23T04:41:52.462Z,627.00
2023-03-23T04:45:52.400Z,629.00
2023-03-23T04:49:52.373Z,631.00
2023-03-23T04:53:52.381Z,608.00
2023-03-23T04:57:52.315Z,612.00
2023-03-23T05:01:52.272Z,588.00
2023-03-23T05:05:53.235Z,559.00
2023-03-23T05:09:52.196Z,577.00
2023-03-23T05:13:52.484Z,586.00
2023-03-23T05:17:52.134Z,579.00
2023-03-23T05:21:52.506Z,570.00
2023-03-23T05:25:52.487Z,598.00
2023-03-23T05:29:52.500Z,594.00
2023-03-23T05:33:51.996Z,582.00
2023-03-23T05:37:51.963Z,542.00
2023-03-23T05:41:52.013Z,557.00
2023-03-23T05:45:51.883Z,551.00
2023-03-23T05:49:51.829Z,556.00
2023-03-23T05:53:51.795Z,577.00
2023-03-23T05:57:52.014Z,577.00
2023-03-23T06:01:51.761Z,596.00
2023-03-23T06:05:51.815Z,605.00
2023-03-23T06:09:52.017Z,621.00
2023-03-23T06:13:51.930Z,635.00
2023-03-23T06:17:51.887Z,644.00
2023-03-23T06:21:51.864Z,654.00
2023-03-23T06:25:51.828Z,660.00
2023-03-23T06:29:52.798Z,655.00
2023-03-23T06:33:51.812Z,684.00
2023-03-23T06:37:52.017Z,779.00
2023-03-23T06:41:51.724Z,829.00
2023-03-23T06:45:52.035Z,903.00
2023-03-23T06:49:51.643Z,953.00
2023-03-23T06:53:51.608Z,995.00
2023-03-23T06:57:51.558Z,992.00
2023-03-23T07:01:51.565Z,990.00
2023-03-23T07:05:51.538Z,1099.00
2023-03-23T07:09:51.461Z,1096.00
2023-03-23T07:13:51.431Z,1122.00
2023-03-23T07:17:51.545Z,1087.00
2023-03-23T07:21:51.534Z,1251.00
2023-03-23T07:25:51.517Z,1368.00
2023-03-23T07:29:52.556Z,1202.00
2023-03-23T07:33:51.802Z,1143.00
2023-03-23T07:37:52.078Z,1220.00
2023-03-23T07:41:52.878Z,1250.00
2023-03-23T07:45:51.852Z,1205.00
2023-03-23T07:49:51.814Z,1204.00
2023-03-23T07:53:51.765Z,1181.00
2023-03-23T07:57:51.732Z,1107.00
2023-03-23T08:01:51.735Z,1064.00
2023-03-23T08:05:51.679Z,1094.00
2023-03-23T08:09:51.663Z,1086.00
2023-03-23T08:13:51.729Z,1039.00
2023-03-23T08:17:51.761Z,1046.00
2023-03-23T08:21:52.075Z,1014.00
2023-03-23T08:25:52.003Z,933.00
2023-03-23T08:29:52.073Z,853.00
2023-03-23T08:33:52.057Z,970.00
2023-03-23T08:37:52.047Z,665.00
2023-03-23T08:41:52.083Z,635.00
2023-03-23T08:45:52.204Z,566.00
2023-03-23T08:49:52.356Z,509.00
2023-03-23T08:53:52.608Z,509.00
2023-03-23T08:57:52.580Z,500.00
2023-03-23T09:01:52.529Z,502.00
2023-03-23T09:05:52.501Z,502.00
2023-03-23T09:09:52.490Z,527.00
2023-03-23T09:13:52.406Z,571.00
2023-03-23T09:17:52.367Z,577.00
2023-03-23T09:21:52.588Z,649.00
2023-03-23T09:25:52.302Z,946.00
2023-03-23T09:29:52.283Z,982.00
2023-03-23T09:33:52.605Z,784.00
2023-03-23T09:37:52.595Z,740.00
2023-03-23T09:41:52.312Z,692.00
2023-03-23T09:45:52.553Z,616.00
2023-03-23T09:49:53.110Z,573.00
2023-03-23T09:53:53.089Z,561.00
2023-03-23T09:57:53.635Z,599.00
2023-03-23T10:01:52.895Z,600.00
2023-03-23T10:05:53.006Z,634.00
2023-03-23T10:09:52.945Z,646.00
2023-03-23T10:13:53.108Z,638.00
2023-03-23T10:17:53.044Z,556.00
2023-03-23T10:21:53.107Z,492.00
2023-03-23T10:25:52.960Z,629.00
2023-03-23T10:29:53.015Z,695.00
2023-03-23T10:33:53.111Z,935.00
2023-03-23T10:37:53.082Z,799.00
2023-03-23T10:41:53.109Z,874.00
2023-03-23T10:46:00.598Z,586.00
2023-03-23T10:49:54.128Z,447.00
2023-03-23T10:53:53.168Z,514.00
2023-03-23T10:57:53.286Z,524.00
2023-03-23T11:01:53.470Z,921.00
2023-03-23T11:05:53.629Z,1001.00
2023-03-23T11:09:53.669Z,1137.00
2023-03-23T11:13:53.806Z,617.00
2023-03-23T11:17:54.043Z,552.00
2023-03-23T11:21:53.963Z,1058.00
2023-03-23T11:25:53.950Z,1327.00
2023-03-23T11:29:58.439Z,1269.00
2023-03-23T11:34:05.573Z,1372.00
2023-03-23T11:37:55.134Z,1398.00
2023-03-23T11:42:06.887Z,1448.00
2023-03-23T11:45:54.765Z,1465.00
2023-03-23T11:49:53.755Z,1377.00
2023-03-23T11:53:54.161Z,1336.00
2023-03-23T11:57:54.136Z,1323.00
2023-03-23T12:01:54.173Z,1379.00
2023-03-23T12:05:54.193Z,1299.00
2023-03-23T12:09:54.683Z,1137.00
2023-03-23T12:13:56.828Z,1349.00
2023-03-23T12:17:54.646Z,1109.00
2023-03-23T12:21:54.665Z,1655.00
2023-03-23T12:25:54.189Z,1490.00
2023-03-23T12:29:54.155Z,1530.00
2023-03-23T12:33:54.110Z,1514.00
2023-03-23T12:37:54.083Z,1408.00
2023-03-23T12:41:54.033Z,1500.00
2023-03-23T12:45:54.019Z,1423.00
2023-03-23T12:49:54.067Z,1346.00
2023-03-23T12:53:54.145Z,1384.00
2023-03-23T12:57:54.182Z,1292.00
2023-03-23T13:01:54.281Z,1179.00
2023-03-23T13:05:54.679Z,1218.00
2023-03-23T13:09:54.441Z,1190.00
2023-03-23T13:13:55.237Z,1175.00
2023-03-23T13:17:54.625Z,1043.00
2023-03-23T13:21:54.783Z,1187.00
2023-03-23T13:25:54.847Z,1145.00
2023-03-23T13:29:54.960Z,997.00
2023-03-23T13:33:55.076Z,1075.00
2023-03-23T13:37:55.169Z,1075.00
2023-03-23T13:41:55.299Z,857.00
2023-03-23T13:45:55.393Z,990.00
2023-03-23T13:49:55.522Z,844.00
2023-03-23T13:53:55.650Z,1109.00
2023-03-23T13:57:56.215Z,1094.00
2023-03-23T14:01:56.220Z,967.00
2023-03-23T14:05:56.021Z,1057.00
2023-03-23T14:09:56.218Z,1118.00
2023-03-23T14:13:56.284Z,1022.00
2023-03-23T14:17:56.412Z,889.00
2023-03-23T14:21:56.622Z,965.00
2023-03-23T14:25:56.687Z,1038.00
2023-03-23T14:29:56.840Z,868.00
2023-03-23T14:33:56.935Z,1000.00
2023-03-23T14:37:57.217Z,946.00
2023-03-23T14:41:57.259Z,895.00
2023-03-23T14:45:57.381Z,882.00
2023-03-23T14:49:57.731Z,788.00
2023-03-23T14:53:57.726Z,776.00
2023-03-23T14:57:58.236Z,842.00
2023-03-23T15:01:57.894Z,769.00
2023-03-23T15:05:58.005Z,872.00
2023-03-23T15:09:58.136Z,797.00
2023-03-23T15:13:58.305Z,828.00
2023-03-23T15:17:58.474Z,826.00
2023-03-23T15:21:58.632Z,808.00
2023-03-23T15:25:58.829Z,779.00
2023-03-23T15:29:59.008Z,848.00
2023-03-23T15:33:59.130Z,844.00
2023-03-23T15:37:59.317Z,787.00
2023-03-23T15:41:59.285Z,716.00
2023-03-23T15:45:59.268Z,746.00
2023-03-23T15:49:59.202Z,800.00
2023-03-23T15:54:02.867Z,749.00
2023-03-23T15:58:00.206Z,799.00
2023-03-23T16:01:59.125Z,776.00
2023-03-23T16:05:59.122Z,840.00
2023-03-23T16:09:59.364Z,830.00
2023-03-23T16:13:59.576Z,818.00
2023-03-23T16:17:59.836Z,706.00
2023-03-23T16:22:00.003Z,765.00
2023-03-23T16:26:00.274Z,930.00
2023-03-23T16:30:04.276Z,841.00
2023-03-23T16:34:00.144Z,820.00
2023-03-23T16:38:08.267Z,592.00
2023-03-23T16:42:01.391Z,616.00
2023-03-23T16:46:00.078Z,569.00
2023-03-23T16:50:00.230Z,541.00
2023-03-23T16:54:00.196Z,588.00
2023-03-23T16:58:09.364Z,695.00
2023-03-23T17:02:01.311Z,659.00
2023-03-23T17:06:00.112Z,843.00
2023-03-23T17:10:00.045Z,995.00
2023-03-23T17:13:59.999Z,660.00
2023-03-23T17:18:00.139Z,671.00
2023-03-23T17:21:59.947Z,760.00
2023-03-23T17:25:59.943Z,662.00
2023-03-23T17:29:59.876Z,680.00
2023-03-23T17:33:59.843Z,663.00
2023-03-23T17:37:59.813Z,650.00
2023-03-23T17:41:59.784Z,664.00
2023-03-23T17:45:59.965Z,655.00
2023-03-23T17:49:59.911Z,638.00
2023-03-23T17:53:59.854Z,655.00
2023-03-23T17:57:59.817Z,645.00
2023-03-23T18:01:59.815Z,620.00
2023-03-23T18:05:59.735Z,628.00
2023-03-23T18:09:59.807Z,651.00
2023-03-23T18:13:59.685Z,643.00
2023-03-23T18:17:59.691Z,656.00
2023-03-23T18:21:59.652Z,624.00
2023-03-23T18:25:59.557Z,606.00
2023-03-23T18:29:59.523Z,643.00
2023-03-23T18:33:59.592Z,620.00
2023-03-23T18:37:59.716Z,645.00
2023-03-23T18:41:59.831Z,655.00
2023-03-23T18:46:00.103Z,739.00
2023-03-23T18:50:00.077Z,771.00
2023-03-23T18:54:00.044Z,776.00
2023-03-23T18:58:00.133Z,803.00
2023-03-23T19:02:00.138Z,756.00
2023-03-23T19:06:00.114Z,767.00
2023-03-23T19:10:00.051Z,759.00
2023-03-23T19:14:02.990Z,838.00
2023-03-23T19:18:00.003Z,760.00
2023-03-23T19:22:00.190Z,797.00
2023-03-23T19:26:00.151Z,779.00
2023-03-23T19:29:59.881Z,795.00
2023-03-23T19:33:59.868Z,660.00
2023-03-23T19:37:59.799Z,732.00
2023-03-23T19:41:59.764Z,720.00
2023-03-23T19:46:00.229Z,716.00
2023-03-23T19:49:59.729Z,655.00
2023-03-23T19:53:59.672Z,647.00
2023-03-23T19:58:00.375Z,708.00
2023-03-23T20:01:59.635Z,747.00
2023-03-23T20:05:59.545Z,750.00
2023-03-23T20:09:59.516Z,665.00
2023-03-23T20:13:59.495Z,735.00
2023-03-23T20:17:59.495Z,730.00
2023-03-23T20:21:59.451Z,767.00
2023-03-23T20:25:59.787Z,732.00
2023-03-23T20:29:59.341Z,671.00
2023-03-23T20:34:00.553Z,664.00
2023-03-23T20:37:59.309Z,706.00
2023-03-23T20:41:59.230Z,714.00
2023-03-23T20:45:59.217Z,688.00
2023-03-23T20:49:59.174Z,666.00
2023-03-23T20:53:59.217Z,707.00
2023-03-23T20:57:59.272Z,736.00
2023-03-23T21:01:59.250Z,690.00
2023-03-23T21:05:59.265Z,666.00
2023-03-23T21:09:59.332Z,665.00
2023-03-23T21:13:59.361Z,675.00
2023-03-23T21:17:59.450Z,689.00
2023-03-23T21:21:59.397Z,653.00
2023-03-23T21:25:59.391Z,709.00
2023-03-23T21:29:59.477Z,690.00
2023-03-23T21:33:59.464Z,708.00
2023-03-23T21:37:59.495Z,723.00
2023-03-23T21:41:59.723Z,676.00
2023-03-23T21:45:59.560Z,716.00
2023-03-23T21:49:59.581Z,665.00
2023-03-23T21:53:59.629Z,678.00
2023-03-23T21:57:59.622Z,701.00
2023-03-23T22:01:59.743Z,661.00
2023-03-23T22:05:59.696Z,646.00
2023-03-23T22:09:59.727Z,635.00
2023-03-23T22:13:59.741Z,667.00
2023-03-23T22:17:59.830Z,658.00
2023-03-23T22:21:59.780Z,698.00
2023-03-23T22:25:59.819Z,662.00
2023-03-23T22:29:59.841Z,675.00
2023-03-23T22:33:59.876Z,681.00
2023-03-23T22:37:59.923Z,665.00
2023-03-23T22:41:59.963Z,695.00
2023-03-23T22:46:00.000Z,648.00
2023-03-23T22:50:00.053Z,669.00
2023-03-23T22:54:00.094Z,704.00
2023-03-23T22:58:00.102Z,654.00
2023-03-23T23:02:00.135Z,649.00
2023-03-23T23:06:00.158Z,652.00
2023-03-23T23:10:00.212Z,614.00
2023-03-23T23:14:00.223Z,606.00
2023-03-23T23:18:00.368Z,635.00
2023-03-23T23:22:12.613Z,617.00
2023-03-23T23:26:01.270Z,615.00
2023-03-23T23:30:00.245Z,617.00
2023-03-23T23:34:00.239Z,621.00
2023-03-23T23:38:00.195Z,617.00
2023-03-23T23:42:00.141Z,621.00
2023-03-23T23:46:00.177Z,612.00
2023-03-23T23:50:00.126Z,595.00
2023-03-23T23:54:00.037Z,627.00
2023-03-23T23:58:00.089Z,603.00
